sensor_id;sensor_type;location;lat;lon;timestamp;pressure;altitude;pressure_sealevel;temperature;humidity
80976;BME280;70437;49.466;11.002;2023-12-07T00:02:18;98388.63;;;2.57;100.00
80976;BME280;70437;49.466;11.002;2023-12-07T00:04:54;98380.69;;;2.48;100.00
80976;BME280;70437;49.466;11.002;2023-12-07T00:07:26;98385.16;;;2.56;100.00
80976;BME280;70437;49.466;11.002;2023-12-07T00:09:57;98381.00;;;2.45;100.00
80976;BME280;70437;49.466;11.002;2023-12-07T00:12:33;98370.28;;;2.47;100.00
80976;BME280;70437;49.466;11.002;2023-12-07T00:15:08;98379.50;;;2.67;100.00
80976;BME280;70437;49.466;11.002;2023-12-07T00:17:39;98384.47;;;2.62;100.00
80976;BME280;70437;49.466;11.002;2023-12-07T00:20:08;98382.34;;;2.49;100.00
80976;BME280;70437;49.466;11.002;2023-12-07T00:22:37;98388.97;;;2.37;100.00
80976;BME280;70437;49.466;11.002;2023-12-07T00:25:13;98379.03;;;2.31;100.00
80976;BME280;70437;49.466;11.002;2023-12-07T00:27:45;98385.50;;;2.28;100.00
80976;BME280;70437;49.466;11.002;2023-12-07T00:30:15;98386.81;;;2.33;100.00
80976;BME280;70437;49.466;11.002;2023-12-07T00:32:47;98397.53;;;2.31;100.00
80976;BME280;70437;49.466;11.002;2023-12-07T00:35:21;98397.06;;;2.36;100.00
80976;BME280;70437;49.466;11.002;2023-12-07T00:37:53;98401.50;;;2.27;100.00
80976;BME280;70437;49.466;11.002;2023-12-07T00:40:27;98404.84;;;2.29;100.00
80976;BME280;70437;49.466;11.002;2023-12-07T00:42:58;98401.34;;;2.45;100.00
80976;BME280;70437;49.466;11.002;2023-12-07T00:45:30;98404.34;;;2.34;100.00
80976;BME280;70437;49.466;11.002;2023-12-07T00:48:03;98398.88;;;2.27;100.00
80976;BME280;70437;49.466;11.002;2023-12-07T00:50:36;98408.63;;;2.26;100.00
80976;BME280;70437;49.466;11.002;2023-12-07T00:53:09;98409.78;;;2.32;100.00
80976;BME280;70437;49.466;11.002;2023-12-07T00:55:41;98414.25;;;2.40;100.00
80976;BME280;70437;49.466;11.002;2023-12-07T00:58:22;98411.59;;;2.32;100.00
80976;BME280;70437;49.466;11.002;2023-12-07T01:00:51;98418.06;;;2.29;100.00
80976;BME280;70437;49.466;11.002;2023-12-07T01:03:20;98418.22;;;2.19;100.00
80976;BME280;70437;49.466;11.002;2023-12-07T01:05:51;98406.81;;;2.19;100.00
80976;BME280;70437;49.466;11.002;2023-12-07T01:08:21;98418.53;;;2.41;100.00
80976;BME280;70437;49.466;11.002;2023-12-07T01:10:57;98429.28;;;2.31;100.00
80976;BME280;70437;49.466;11.002;2023-12-07T01:13:28;98420.03;;;2.35;100.00
80976;BME280;70437;49.466;11.002;2023-12-07T01:16:00;98430.78;;;2.34;100.00
80976;BME280;70437;49.466;11.002;2023-12-07T01:18:31;98432.63;;;2.41;100.00
80976;BME280;70437;49.466;11.002;2023-12-07T01:21:03;98431.75;;;2.41;100.00
80976;BME280;70437;49.466;11.002;2023-12-07T01:23:40;98437.06;;;2.57;100.00
80976;BME280;70437;49.466;11.002;2023-12-07T01:26:25;98442.19;;;2.59;100.00
80976;BME280;70437;49.466;11.002;2023-12-07T01:28:58;98453.25;;;2.54;100.00
80976;BME280;70437;49.466;11.002;2023-12-07T01:31:27;98452.94;;;2.33;100.00
80976;BME280;70437;49.466;11.002;2023-12-07T01:34:05;98451.63;;;2.37;100.00
80976;BME280;70437;49.466;11.002;2023-12-07T01:36:36;98459.38;;;2.38;100.00
80976;BME280;70437;49.466;11.002;2023-12-07T01:39:06;98466.16;;;2.33;100.00
80976;BME280;70437;49.466;11.002;2023-12-07T01:41:40;98467.31;;;2.38;100.00
80976;BME280;70437;49.466;11.002;2023-12-07T01:44:14;98472.41;;;2.40;100.00
80976;BME280;70437;49.466;11.002;2023-12-07T01:46:43;98477.72;;;2.40;100.00
80976;BME280;70437;49.466;11.002;2023-12-07T01:49:18;98469.78;;;2.40;100.00
80976;BME280;70437;49.466;11.002;2023-12-07T01:51:54;98471.09;;;2.36;100.00
80976;BME280;70437;49.466;11.002;2023-12-07T01:54:27;98474.41;;;2.30;100.00
80976;BME280;70437;49.466;11.002;2023-12-07T01:57:01;98474.91;;;2.33;100.00
80976;BME280;70437;49.466;11.002;2023-12-07T01:59:31;98474.56;;;2.36;100.00
80976;BME280;70437;49.466;11.002;2023-12-07T02:02:04;98480.53;;;2.38;100.00
80976;BME280;70437;49.466;11.002;2023-12-07T02:04:38;98480.38;;;2.48;100.00
80976;BME280;70437;49.466;11.002;2023-12-07T02:07:10;98479.03;;;2.44;100.00
80976;BME280;70437;49.466;11.002;2023-12-07T02:09:46;98481.84;;;2.42;100.00
80976;BME280;70437;49.466;11.002;2023-12-07T02:12:19;98473.44;;;2.47;100.00
80976;BME280;70437;49.466;11.002;2023-12-07T02:14:49;98479.22;;;2.42;100.00
80976;BME280;70437;49.466;11.002;2023-12-07T02:17:24;98487.16;;;2.42;100.00
80976;BME280;70437;49.466;11.002;2023-12-07T02:20:01;98484.03;;;2.55;100.00
80976;BME280;70437;49.466;11.002;2023-12-07T02:22:37;98490.94;;;2.48;100.00
80976;BME280;70437;49.466;11.002;2023-12-07T02:25:14;98485.84;;;2.46;100.00
80976;BME280;70437;49.466;11.002;2023-12-07T02:27:50;98484.66;;;2.49;100.00
80976;BME280;70437;49.466;11.002;2023-12-07T02:30:21;98488.28;;;2.40;100.00
80976;BME280;70437;49.466;11.002;2023-12-07T02:32:51;98485.50;;;2.41;100.00
80976;BME280;70437;49.466;11.002;2023-12-07T02:35:25;98483.69;;;2.42;100.00
80976;BME280;70437;49.466;11.002;2023-12-07T02:38:03;98488.81;;;2.51;100.00
80976;BME280;70437;49.466;11.002;2023-12-07T02:40:34;98488.31;;;2.48;100.00
80976;BME280;70437;49.466;11.002;2023-12-07T02:43:09;98489.16;;;2.57;100.00
80976;BME280;70437;49.466;11.002;2023-12-07T02:45:39;98489.63;;;2.44;100.00
80976;BME280;70437;49.466;11.002;2023-12-07T02:48:12;98483.03;;;2.56;100.00
80976;BME280;70437;49.466;11.002;2023-12-07T02:50:42;98492.75;;;2.39;100.00
80976;BME280;70437;49.466;11.002;2023-12-07T02:53:13;98488.00;;;2.51;100.00
80976;BME280;70437;49.466;11.002;2023-12-07T02:55:44;98489.97;;;2.57;100.00
80976;BME280;70437;49.466;11.002;2023-12-07T02:58:17;98483.69;;;2.66;100.00
80976;BME280;70437;49.466;11.002;2023-12-07T03:00:46;98499.75;;;2.65;100.00
80976;BME280;70437;49.466;11.002;2023-12-07T03:03:24;98493.28;;;2.59;100.00
80976;BME280;70437;49.466;11.002;2023-12-07T03:05:55;98499.22;;;2.61;100.00
80976;BME280;70437;49.466;11.002;2023-12-07T03:08:31;98499.53;;;2.50;100.00
80976;BME280;70437;49.466;11.002;2023-12-07T03:11:01;98499.56;;;2.42;100.00
80976;BME280;70437;49.466;11.002;2023-12-07T03:13:35;98500.66;;;2.31;100.00
80976;BME280;70437;49.466;11.002;2023-12-07T03:16:08;98501.50;;;2.40;100.00
80976;BME280;70437;49.466;11.002;2023-12-07T03:18:46;98506.44;;;2.26;100.00
80976;BME280;70437;49.466;11.002;2023-12-07T03:21:18;98503.84;;;2.43;100.00
80976;BME280;70437;49.466;11.002;2023-12-07T03:23:51;98508.31;;;2.42;100.00
80976;BME280;70437;49.466;11.002;2023-12-07T03:26:23;98503.38;;;2.56;100.00
80976;BME280;70437;49.466;11.002;2023-12-07T03:28:56;98508.00;;;2.62;100.00
80976;BME280;70437;49.466;11.002;2023-12-07T03:31:27;98509.97;;;2.43;100.00
80976;BME280;70437;49.466;11.002;2023-12-07T03:34:00;98510.94;;;2.42;100.00
80976;BME280;70437;49.466;11.002;2023-12-07T03:36:45;98510.44;;;2.39;100.00
80976;BME280;70437;49.466;11.002;2023-12-07T03:39:16;98518.69;;;2.36;100.00
80976;BME280;70437;49.466;11.002;2023-12-07T03:41:51;98517.22;;;2.33;100.00
80976;BME280;70437;49.466;11.002;2023-12-07T03:44:24;98513.25;;;2.29;100.00
80976;BME280;70437;49.466;11.002;2023-12-07T03:46:57;98519.03;;;2.33;100.00
80976;BME280;70437;49.466;11.002;2023-12-07T03:49:29;98516.72;;;2.38;100.00
80976;BME280;70437;49.466;11.002;2023-12-07T03:52:05;98505.19;;;2.47;100.00
80976;BME280;70437;49.466;11.002;2023-12-07T03:54:39;98517.22;;;2.33;100.00
80976;BME280;70437;49.466;11.002;2023-12-07T03:57:10;98517.88;;;2.43;100.00
80976;BME280;70437;49.466;11.002;2023-12-07T03:59:41;98511.59;;;2.44;100.00
80976;BME280;70437;49.466;11.002;2023-12-07T04:02:20;98519.88;;;2.49;100.00
80976;BME280;70437;49.466;11.002;2023-12-07T04:04:52;98523.19;;;2.43;100.00
80976;BME280;70437;49.466;11.002;2023-12-07T04:07:23;98523.81;;;2.45;100.00
80976;BME280;70437;49.466;11.002;2023-12-07T04:09:56;98531.44;;;2.40;100.00
80976;BME280;70437;49.466;11.002;2023-12-07T04:12:27;98541.03;;;2.41;100.00
80976;BME280;70437;49.466;11.002;2023-12-07T04:14:58;98543.31;;;2.36;100.00
80976;BME280;70437;49.466;11.002;2023-12-07T04:17:28;98538.72;;;2.46;100.00
80976;BME280;70437;49.466;11.002;2023-12-07T04:20:02;98538.06;;;2.44;100.00
80976;BME280;70437;49.466;11.002;2023-12-07T04:22:37;98538.53;;;2.40;100.00
80976;BME280;70437;49.466;11.002;2023-12-07T04:25:11;98536.09;;;2.46;100.00
80976;BME280;70437;49.466;11.002;2023-12-07T04:27:47;98529.97;;;2.54;100.00
80976;BME280;70437;49.466;11.002;2023-12-07T04:30:22;98534.28;;;2.55;100.00
80976;BME280;70437;49.466;11.002;2023-12-07T04:32:53;98537.94;;;2.78;100.00
80976;BME280;70437;49.466;11.002;2023-12-07T04:35:24;98541.25;;;2.64;100.00
80976;BME280;70437;49.466;11.002;2023-12-07T04:37:56;98543.56;;;2.59;100.00
80976;BME280;70437;49.466;11.002;2023-12-07T04:40:29;98545.03;;;2.62;100.00
80976;BME280;70437;49.466;11.002;2023-12-07T04:43:07;98533.47;;;2.55;100.00
80976;BME280;70437;49.466;11.002;2023-12-07T04:45:43;98555.59;;;2.53;100.00
80976;BME280;70437;49.466;11.002;2023-12-07T04:48:15;98548.81;;;2.51;100.00
80976;BME280;70437;49.466;11.002;2023-12-07T04:50:45;98546.53;;;2.64;100.00
80976;BME280;70437;49.466;11.002;2023-12-07T04:53:16;98545.69;;;2.56;100.00
80976;BME280;70437;49.466;11.002;2023-12-07T04:55:50;98550.50;;;2.60;100.00
80976;BME280;70437;49.466;11.002;2023-12-07T04:58:21;98556.91;;;2.49;100.00
80976;BME280;70437;49.466;11.002;2023-12-07T05:00:54;98558.38;;;2.44;100.00
80976;BME280;70437;49.466;11.002;2023-12-07T05:03:27;98559.38;;;2.43;100.00
80976;BME280;70437;49.466;11.002;2023-12-07T05:06:01;98562.69;;;2.45;100.00
80976;BME280;70437;49.466;11.002;2023-12-07T05:08:33;98549.44;;;2.45;100.00
80976;BME280;70437;49.466;11.002;2023-12-07T05:11:06;98557.34;;;2.28;100.00
80976;BME280;70437;49.466;11.002;2023-12-07T05:13:39;98556.84;;;2.25;100.00
80976;BME280;70437;49.466;11.002;2023-12-07T05:16:16;98557.13;;;2.14;100.00
80976;BME280;70437;49.466;11.002;2023-12-07T05:18:51;98555.16;;;2.16;100.00
80976;BME280;70437;49.466;11.002;2023-12-07T05:21:22;98559.91;;;2.04;100.00
80976;BME280;70437;49.466;11.002;2023-12-07T05:24:02;98568.16;;;2.01;100.00
80976;BME280;70437;49.466;11.002;2023-12-07T05:26:50;98569.56;;;1.87;100.00
80976;BME280;70437;49.466;11.002;2023-12-07T05:29:20;98572.66;;;1.74;100.00
80976;BME280;70437;49.466;11.002;2023-12-07T05:31:52;98567.56;;;1.81;100.00
80976;BME280;70437;49.466;11.002;2023-12-07T05:34:27;98570.72;;;1.85;100.00
80976;BME280;70437;49.466;11.002;2023-12-07T05:36:59;98570.66;;;1.76;100.00
80976;BME280;70437;49.466;11.002;2023-12-07T05:39:31;98575.25;;;1.66;100.00
80976;BME280;70437;49.466;11.002;2023-12-07T05:42:03;98570.50;;;1.70;100.00
80976;BME280;70437;49.466;11.002;2023-12-07T05:44:37;98574.25;;;1.67;100.00
80976;BME280;70437;49.466;11.002;2023-12-07T05:47:10;98569.63;;;1.69;100.00
80976;BME280;70437;49.466;11.002;2023-12-07T05:49:44;98579.47;;;1.59;100.00
80976;BME280;70437;49.466;11.002;2023-12-07T05:52:17;98579.94;;;1.55;100.00
80976;BME280;70437;49.466;11.002;2023-12-07T05:54:46;98586.06;;;1.55;100.00
80976;BME280;70437;49.466;11.002;2023-12-07T05:57:19;98587.00;;;1.46;100.00
80976;BME280;70437;49.466;11.002;2023-12-07T05:59:48;98583.69;;;1.44;100.00
80976;BME280;70437;49.466;11.002;2023-12-07T06:02:20;98587.25;;;1.35;100.00
80976;BME280;70437;49.466;11.002;2023-12-07T06:04:51;98587.34;;;1.51;100.00
80976;BME280;70437;49.466;11.002;2023-12-07T06:07:23;98589.06;;;1.60;100.00
80976;BME280;70437;49.466;11.002;2023-12-07T06:09:53;98591.69;;;1.60;100.00
80976;BME280;70437;49.466;11.002;2023-12-07T06:12:24;98595.56;;;1.66;100.00
80976;BME280;70437;49.466;11.002;2023-12-07T06:15:00;98594.03;;;1.63;100.00
80976;BME280;70437;49.466;11.002;2023-12-07T06:17:37;98597.28;;;2.17;100.00
80976;BME280;70437;49.466;11.002;2023-12-07T06:20:08;98599.13;;;2.17;100.00
80976;BME280;70437;49.466;11.002;2023-12-07T06:22:38;98607.34;;;2.06;100.00
80976;BME280;70437;49.466;11.002;2023-12-07T06:25:08;98594.06;;;1.97;100.00
80976;BME280;70437;49.466;11.002;2023-12-07T06:27:38;98599.25;;;1.81;100.00
80976;BME280;70437;49.466;11.002;2023-12-07T06:30:36;98593.75;;;2.00;100.00
80976;BME280;70437;49.466;11.002;2023-12-07T06:33:07;98603.31;;;2.36;100.00
80976;BME280;70437;49.466;11.002;2023-12-07T06:35:41;98614.22;;;2.33;100.00
80976;BME280;70437;49.466;11.002;2023-12-07T06:38:12;98614.72;;;2.28;100.00
80976;BME280;70437;49.466;11.002;2023-12-07T06:40:48;98613.22;;;1.99;100.00
80976;BME280;70437;49.466;11.002;2023-12-07T06:43:22;98610.72;;;1.64;100.00
80976;BME280;70437;49.466;11.002;2023-12-07T06:45:54;98606.41;;;1.37;100.00
80976;BME280;70437;49.466;11.002;2023-12-07T06:48:28;98607.59;;;1.24;100.00
80976;BME280;70437;49.466;11.002;2023-12-07T06:50:59;98606.03;;;1.32;100.00
80976;BME280;70437;49.466;11.002;2023-12-07T06:53:28;98602.13;;;1.18;100.00
80976;BME280;70437;49.466;11.002;2023-12-07T06:55:59;98609.59;;;1.05;100.00
80976;BME280;70437;49.466;11.002;2023-12-07T06:58:28;98619.88;;;1.08;100.00
80976;BME280;70437;49.466;11.002;2023-12-07T07:00:59;98616.88;;;1.29;100.00
80976;BME280;70437;49.466;11.002;2023-12-07T07:03:29;98627.53;;;1.37;100.00
80976;BME280;70437;49.466;11.002;2023-12-07T07:06:00;98618.16;;;1.42;100.00
80976;BME280;70437;49.466;11.002;2023-12-07T07:08:29;98625.41;;;1.40;100.00
80976;BME280;70437;49.466;11.002;2023-12-07T07:10:58;98630.31;;;1.35;100.00
80976;BME280;70437;49.466;11.002;2023-12-07T07:13:27;98624.56;;;1.40;100.00
80976;BME280;70437;49.466;11.002;2023-12-07T07:16:01;98620.94;;;1.41;100.00
80976;BME280;70437;49.466;11.002;2023-12-07T07:19:13;98630.44;;;1.34;100.00
80976;BME280;70437;49.466;11.002;2023-12-07T07:21:47;98628.81;;;1.33;100.00
80976;BME280;70437;49.466;11.002;2023-12-07T07:24:24;98636.97;;;1.39;100.00
80976;BME280;70437;49.466;11.002;2023-12-07T07:26:56;98638.94;;;1.63;100.00
80976;BME280;70437;49.466;11.002;2023-12-07T07:29:27;98639.38;;;1.76;100.00
80976;BME280;70437;49.466;11.002;2023-12-07T07:31:59;98634.25;;;1.75;100.00
80976;BME280;70437;49.466;11.002;2023-12-07T07:34:38;98636.25;;;1.81;100.00
80976;BME280;70437;49.466;11.002;2023-12-07T07:37:11;98638.94;;;1.89;100.00
80976;BME280;70437;49.466;11.002;2023-12-07T07:39:43;98647.13;;;2.04;100.00
80976;BME280;70437;49.466;11.002;2023-12-07T07:42:16;98645.94;;;1.98;100.00
80976;BME280;70437;49.466;11.002;2023-12-07T07:44:45;98643.97;;;2.00;100.00
80976;BME280;70437;49.466;11.002;2023-12-07T07:47:17;98644.53;;;2.12;100.00
80976;BME280;70437;49.466;11.002;2023-12-07T07:49:49;98636.00;;;2.69;100.00
80976;BME280;70437;49.466;11.002;2023-12-07T07:52:19;98650.69;;;2.63;100.00
80976;BME280;70437;49.466;11.002;2023-12-07T07:54:48;98648.50;;;2.50;100.00
80976;BME280;70437;49.466;11.002;2023-12-07T07:57:21;98639.88;;;2.48;100.00
80976;BME280;70437;49.466;11.002;2023-12-07T07:59:53;98638.50;;;2.36;100.00
80976;BME280;70437;49.466;11.002;2023-12-07T08:02:27;98642.72;;;1.87;100.00
80976;BME280;70437;49.466;11.002;2023-12-07T08:04:57;98637.84;;;1.74;100.00
80976;BME280;70437;49.466;11.002;2023-12-07T08:07:26;98638.78;;;1.65;100.00
80976;BME280;70437;49.466;11.002;2023-12-07T08:09:56;98643.41;;;1.63;100.00
80976;BME280;70437;49.466;11.002;2023-12-07T08:12:26;98644.38;;;1.62;100.00
80976;BME280;70437;49.466;11.002;2023-12-07T08:14:55;98635.66;;;1.69;100.00
80976;BME280;70437;49.466;11.002;2023-12-07T08:17:26;98639.47;;;1.67;100.00
80976;BME280;70437;49.466;11.002;2023-12-07T08:19:57;98645.41;;;1.69;100.00
80976;BME280;70437;49.466;11.002;2023-12-07T08:22:27;98648.75;;;1.71;100.00
80976;BME280;70437;49.466;11.002;2023-12-07T08:24:56;98646.94;;;1.71;100.00
80976;BME280;70437;49.466;11.002;2023-12-07T08:27:39;98645.94;;;1.72;100.00
80976;BME280;70437;49.466;11.002;2023-12-07T08:30:10;98646.28;;;1.77;100.00
80976;BME280;70437;49.466;11.002;2023-12-07T08:32:41;98657.75;;;1.86;100.00
80976;BME280;70437;49.466;11.002;2023-12-07T08:35:12;98660.97;;;2.24;100.00
80976;BME280;70437;49.466;11.002;2023-12-07T08:37:45;98661.31;;;2.79;100.00
80976;BME280;70437;49.466;11.002;2023-12-07T08:40:15;98663.16;;;2.87;100.00
80976;BME280;70437;49.466;11.002;2023-12-07T08:42:46;98655.84;;;2.81;100.00
80976;BME280;70437;49.466;11.002;2023-12-07T08:45:24;98653.16;;;3.40;100.00
80976;BME280;70437;49.466;11.002;2023-12-07T08:47:55;98654.97;;;3.80;100.00
80976;BME280;70437;49.466;11.002;2023-12-07T08:50:27;98651.00;;;3.51;100.00
80976;BME280;70437;49.466;11.002;2023-12-07T08:52:59;98659.69;;;2.87;100.00
80976;BME280;70437;49.466;11.002;2023-12-07T08:55:33;98667.38;;;2.56;100.00
80976;BME280;70437;49.466;11.002;2023-12-07T08:58:02;98669.75;;;2.33;100.00
80976;BME280;70437;49.466;11.002;2023-12-07T09:00:34;98672.00;;;2.19;100.00
80976;BME280;70437;49.466;11.002;2023-12-07T09:03:05;98674.78;;;2.18;100.00
80976;BME280;70437;49.466;11.002;2023-12-07T09:05:35;98677.44;;;2.52;100.00
80976;BME280;70437;49.466;11.002;2023-12-07T09:08:09;98670.84;;;3.15;100.00
80976;BME280;70437;49.466;11.002;2023-12-07T09:10:39;98652.44;;;3.95;100.00
80976;BME280;70437;49.466;11.002;2023-12-07T09:13:11;98652.81;;;4.78;100.00
80976;BME280;70437;49.466;11.002;2023-12-07T09:15:43;98647.50;;;5.32;100.00
80976;BME280;70437;49.466;11.002;2023-12-07T09:18:12;98655.00;;;5.90;100.00
80976;BME280;70437;49.466;11.002;2023-12-07T09:20:44;98658.25;;;6.29;100.00
80976;BME280;70437;49.466;11.002;2023-12-07T09:23:28;98657.34;;;6.37;100.00
80976;BME280;70437;49.466;11.002;2023-12-07T09:26:11;98659.00;;;6.23;100.00
80976;BME280;70437;49.466;11.002;2023-12-07T09:28:57;98664.63;;;6.43;100.00
80976;BME280;70437;49.466;11.002;2023-12-07T09:31:31;98663.84;;;6.64;100.00
80976;BME280;70437;49.466;11.002;2023-12-07T09:34:01;98667.81;;;7.04;100.00
80976;BME280;70437;49.466;11.002;2023-12-07T09:36:41;98663.16;;;7.28;99.20
80976;BME280;70437;49.466;11.002;2023-12-07T09:39:11;98664.97;;;7.27;97.36
80976;BME280;70437;49.466;11.002;2023-12-07T09:41:43;98655.97;;;7.50;93.10
80976;BME280;70437;49.466;11.002;2023-12-07T09:44:19;98660.63;;;6.69;97.70
80976;BME280;70437;49.466;11.002;2023-12-07T09:46:55;98657.66;;;6.78;100.00
80976;BME280;70437;49.466;11.002;2023-12-07T09:49:25;98657.91;;;6.98;97.61
80976;BME280;70437;49.466;11.002;2023-12-07T09:51:58;98657.66;;;6.93;96.02
80976;BME280;70437;49.466;11.002;2023-12-07T09:54:29;98660.72;;;6.61;100.00
80976;BME280;70437;49.466;11.002;2023-12-07T09:57:02;98651.56;;;6.48;100.00
80976;BME280;70437;49.466;11.002;2023-12-07T09:59:31;98644.44;;;7.21;93.20
80976;BME280;70437;49.466;11.002;2023-12-07T10:02:01;98642.50;;;7.37;90.82
80976;BME280;70437;49.466;11.002;2023-12-07T10:04:31;98626.81;;;7.42;90.80
80976;BME280;70437;49.466;11.002;2023-12-07T10:07:02;98624.88;;;7.57;87.11
80976;BME280;70437;49.466;11.002;2023-12-07T10:09:31;98630.94;;;7.72;82.19
80976;BME280;70437;49.466;11.002;2023-12-07T10:12:07;98625.53;;;7.59;80.62
80976;BME280;70437;49.466;11.002;2023-12-07T10:14:41;98635.78;;;6.32;86.22
80976;BME280;70437;49.466;11.002;2023-12-07T10:17:14;98627.47;;;5.82;90.66
80976;BME280;70437;49.466;11.002;2023-12-07T10:19:46;98621.28;;;5.29;97.82
80976;BME280;70437;49.466;11.002;2023-12-07T10:22:17;98623.13;;;4.75;100.00
80976;BME280;70437;49.466;11.002;2023-12-07T10:24:53;98615.97;;;4.84;100.00
80976;BME280;70437;49.466;11.002;2023-12-07T10:27:27;98625.19;;;4.65;100.00
80976;BME280;70437;49.466;11.002;2023-12-07T10:30:12;98631.88;;;4.52;100.00
80976;BME280;70437;49.466;11.002;2023-12-07T10:32:43;98633.03;;;4.50;100.00
80976;BME280;70437;49.466;11.002;2023-12-07T10:35:14;98627.72;;;4.50;100.00
80976;BME280;70437;49.466;11.002;2023-12-07T10:37:52;98629.41;;;4.51;100.00
80976;BME280;70437;49.466;11.002;2023-12-07T10:44:09;98617.06;;;4.19;100.00
80976;BME280;70437;49.466;11.002;2023-12-07T10:47:52;98613.88;;;4.31;100.00
80976;BME280;70437;49.466;11.002;2023-12-07T10:52:00;98611.50;;;4.45;100.00
80976;BME280;70437;49.466;11.002;2023-12-07T10:54:38;98615.63;;;4.55;100.00
80976;BME280;70437;49.466;11.002;2023-12-07T10:57:11;98613.13;;;4.85;100.00
80976;BME280;70437;49.466;11.002;2023-12-07T10:59:57;98603.25;;;4.71;100.00
80976;BME280;70437;49.466;11.002;2023-12-07T11:02:27;98606.81;;;4.55;100.00
80976;BME280;70437;49.466;11.002;2023-12-07T11:04:58;98600.38;;;4.49;100.00
80976;BME280;70437;49.466;11.002;2023-12-07T11:07:38;98598.19;;;4.53;100.00
80976;BME280;70437;49.466;11.002;2023-12-07T11:10:18;98577.75;;;4.30;100.00
80976;BME280;70437;49.466;11.002;2023-12-07T11:12:55;98595.75;;;4.51;100.00
80976;BME280;70437;49.466;11.002;2023-12-07T11:15:26;98590.47;;;4.43;100.00
80976;BME280;70437;49.466;11.002;2023-12-07T11:17:56;98584.59;;;4.56;100.00
80976;BME280;70437;49.466;11.002;2023-12-07T11:20:39;98584.41;;;4.57;100.00
80976;BME280;70437;49.466;11.002;2023-12-07T11:23:10;98573.09;;;4.64;100.00
80976;BME280;70437;49.466;11.002;2023-12-07T11:25:43;98566.09;;;4.40;100.00
80976;BME280;70437;49.466;11.002;2023-12-07T11:28:15;98562.44;;;4.41;100.00
80976;BME280;70437;49.466;11.002;2023-12-07T11:30:45;98558.97;;;4.40;100.00
80976;BME280;70437;49.466;11.002;2023-12-07T11:33:16;98554.34;;;4.65;100.00
80976;BME280;70437;49.466;11.002;2023-12-07T11:36:05;98551.94;;;4.55;100.00
80976;BME280;70437;49.466;11.002;2023-12-07T11:38:38;98554.06;;;4.83;100.00
80976;BME280;70437;49.466;11.002;2023-12-07T11:41:11;98546.78;;;4.77;100.00
80976;BME280;70437;49.466;11.002;2023-12-07T11:43:46;98550.22;;;5.08;100.00
80976;BME280;70437;49.466;11.002;2023-12-07T11:46:19;98537.63;;;5.25;100.00
80976;BME280;70437;49.466;11.002;2023-12-07T11:48:48;98538.75;;;5.08;100.00
80976;BME280;70437;49.466;11.002;2023-12-07T11:51:18;98541.41;;;5.08;100.00
80976;BME280;70437;49.466;11.002;2023-12-07T11:53:51;98533.75;;;5.13;100.00
80976;BME280;70437;49.466;11.002;2023-12-07T11:56:22;98534.06;;;5.18;100.00
80976;BME280;70437;49.466;11.002;2023-12-07T11:58:53;98542.47;;;5.22;100.00
80976;BME280;70437;49.466;11.002;2023-12-07T12:01:25;98541.94;;;5.26;100.00
80976;BME280;70437;49.466;11.002;2023-12-07T12:03:55;98538.81;;;5.23;100.00
80976;BME280;70437;49.466;11.002;2023-12-07T12:06:30;98537.69;;;5.17;100.00
80976;BME280;70437;49.466;11.002;2023-12-07T12:09:03;98543.31;;;5.22;100.00
80976;BME280;70437;49.466;11.002;2023-12-07T12:11:33;98539.50;;;5.02;100.00
80976;BME280;70437;49.466;11.002;2023-12-07T12:14:02;98535.53;;;4.98;100.00
80976;BME280;70437;49.466;11.002;2023-12-07T12:16:32;98535.53;;;4.98;100.00
80976;BME280;70437;49.466;11.002;2023-12-07T12:19:02;98529.66;;;4.88;100.00
80976;BME280;70437;49.466;11.002;2023-12-07T12:21:33;98529.13;;;4.92;100.00
80976;BME280;70437;49.466;11.002;2023-12-07T12:24:05;98532.69;;;4.99;100.00
80976;BME280;70437;49.466;11.002;2023-12-07T12:26:39;98527.09;;;4.94;100.00
80976;BME280;70437;49.466;11.002;2023-12-07T12:29:15;98534.72;;;4.97;100.00
80976;BME280;70437;49.466;11.002;2023-12-07T12:31:57;98522.53;;;5.03;100.00
80976;BME280;70437;49.466;11.002;2023-12-07T12:34:26;98520.41;;;4.98;100.00
80976;BME280;70437;49.466;11.002;2023-12-07T12:37:02;98519.22;;;5.24;100.00
80976;BME280;70437;49.466;11.002;2023-12-07T12:39:37;98509.94;;;5.05;100.00
80976;BME280;70437;49.466;11.002;2023-12-07T12:42:27;98506.75;;;5.24;100.00
80976;BME280;70437;49.466;11.002;2023-12-07T12:44:57;98506.13;;;5.22;100.00
80976;BME280;70437;49.466;11.002;2023-12-07T12:47:26;98517.22;;;5.03;100.00
80976;BME280;70437;49.466;11.002;2023-12-07T12:49:55;98510.59;;;5.22;100.00
80976;BME280;70437;49.466;11.002;2023-12-07T12:52:28;98501.72;;;5.29;100.00
80976;BME280;70437;49.466;11.002;2023-12-07T12:55:02;98507.50;;;5.18;100.00
80976;BME280;70437;49.466;11.002;2023-12-07T12:57:38;98495.50;;;4.99;100.00
80976;BME280;70437;49.466;11.002;2023-12-07T13:00:19;98509.47;;;5.01;100.00
80976;BME280;70437;49.466;11.002;2023-12-07T13:02:51;98509.63;;;5.00;100.00
80976;BME280;70437;49.466;11.002;2023-12-07T13:05:22;98498.53;;;4.96;100.00
80976;BME280;70437;49.466;11.002;2023-12-07T13:08:08;98496.00;;;5.18;100.00
80976;BME280;70437;49.466;11.002;2023-12-07T13:10:42;98493.88;;;5.36;100.00
80976;BME280;70437;49.466;11.002;2023-12-07T13:13:14;98481.88;;;5.55;100.00
80976;BME280;70437;49.466;11.002;2023-12-07T13:15:46;98480.47;;;5.44;100.00
80976;BME280;70437;49.466;11.002;2023-12-07T13:18:23;98477.94;;;5.51;100.00
80976;BME280;70437;49.466;11.002;2023-12-07T13:20:52;98465.75;;;5.42;100.00
80976;BME280;70437;49.466;11.002;2023-12-07T13:23:26;98462.22;;;5.26;100.00
80976;BME280;70437;49.466;11.002;2023-12-07T13:25:57;98468.41;;;5.04;100.00
80976;BME280;70437;49.466;11.002;2023-12-07T13:28:32;98460.16;;;4.84;100.00